createdAt,value
2022-10-14T06:08:02.315Z,97078.63
2022-10-14T06:10:30.686Z,97076.69
2022-10-14T06:12:58.281Z,97083.81
2022-10-14T06:15:28.393Z,97089.28
2022-10-14T06:17:56.800Z,97088.50
2022-10-14T06:20:26.473Z,97095.03
2022-10-14T06:22:54.282Z,97093.00
2022-10-14T06:25:21.824Z,97094.81
2022-10-14T06:27:49.446Z,97101.69
2022-10-14T06:30:17.253Z,97106.75
2022-10-14T06:32:44.885Z,97107.94
2022-10-14T06:35:12.500Z,97107.94
2022-10-14T06:37:40.191Z,97114.81
2022-10-14T06:40:08.151Z,97109.97
2022-10-14T06:42:35.827Z,97109.53
2022-10-14T06:45:04.350Z,97105.47
2022-10-14T06:47:32.106Z,97104.66
2022-10-14T06:49:59.940Z,97103.69
2022-10-14T06:52:27.705Z,97110.75
2022-10-14T06:54:57.942Z,97113.59
2022-10-14T06:57:25.677Z,97117.03
2022-10-14T06:59:53.455Z,97110.56
2022-10-14T07:02:23.713Z,97115.66
2022-10-14T07:04:51.784Z,97117.69
2022-10-14T07:07:19.582Z,97117.69
2022-10-14T07:09:47.545Z,97118.50
2022-10-14T07:12:16.578Z,97120.09
2022-10-14T07:14:44.390Z,97125.78
2022-10-14T07:17:13.281Z,97119.28
2022-10-14T07:19:41.064Z,97125.34
2022-10-14T07:22:08.770Z,97123.34
2022-10-14T07:24:36.371Z,97120.09
2022-10-14T07:29:36.695Z,97128.88
2022-10-14T07:32:05.148Z,97125.44
2022-10-14T07:34:34.383Z,97128.28
2022-10-14T07:37:02.302Z,97125.84
2022-10-14T07:39:30.030Z,97130.66
2022-10-14T07:41:57.822Z,97123.84
2022-10-14T07:44:27.342Z,97118.88
2022-10-14T07:46:55.409Z,97125.75
2022-10-14T07:49:23.186Z,97111.19
2022-10-14T07:51:50.977Z,97117.53
2022-10-14T07:54:20.953Z,97118.03
2022-10-14T07:56:51.697Z,97125.81
2022-10-14T07:59:20.092Z,97135.38
2022-10-14T08:01:48.963Z,97123.25
2022-10-14T08:04:16.886Z,97122.66
2022-10-14T08:06:44.636Z,97117.31
2022-10-14T08:09:12.394Z,97133.13
2022-10-14T08:11:40.468Z,97141.00
2022-10-14T08:14:08.487Z,97131.31
2022-10-14T08:16:36.477Z,97139.56
2022-10-14T08:19:12.545Z,97133.47
2022-10-14T08:21:42.793Z,97151.28
2022-10-14T08:24:11.007Z,97144.00
2022-10-14T08:26:39.999Z,97146.56
2022-10-14T08:29:11.061Z,97150.28
2022-10-14T08:31:38.889Z,97142.38
2022-10-14T08:34:06.544Z,97144.56
2022-10-14T08:36:36.499Z,97144.88
2022-10-14T08:39:05.754Z,97142.44
2022-10-14T08:41:52.169Z,97149.22
2022-10-14T08:44:34.051Z,97144.66
2022-10-14T08:47:03.085Z,97145.03
2022-10-14T08:49:35.782Z,97142.88
2022-10-14T08:52:13.689Z,97146.44
2022-10-14T08:55:04.531Z,97137.53
2022-10-14T08:57:37.721Z,97147.47
2022-10-14T09:00:07.104Z,97140.41
2022-10-14T09:02:48.391Z,97149.75
2022-10-14T09:05:24.069Z,97150.03
2022-10-14T09:07:54.038Z,97145.25
2022-10-14T09:10:36.689Z,97147.97
2022-10-14T09:13:19.370Z,97157.00
2022-10-14T09:15:49.873Z,97163.22
2022-10-14T09:18:22.932Z,97169.25
2022-10-14T09:20:50.710Z,97171.22
2022-10-14T09:23:23.610Z,97170.47
2022-10-14T09:26:17.614Z,97162.53
2022-10-14T09:28:45.610Z,97163.63
2022-10-14T09:31:13.534Z,97163.78
2022-10-14T09:33:42.616Z,97163.00
2022-10-14T09:36:21.127Z,97169.06
2022-10-14T09:38:52.715Z,97178.19
2022-10-14T09:41:27.086Z,97179.13
2022-10-14T09:44:18.670Z,97176.63
2022-10-14T09:46:48.553Z,97179.44
2022-10-14T09:49:18.777Z,97165.78
2022-10-14T09:51:46.756Z,97178.56
2022-10-14T09:54:26.523Z,97167.41
2022-10-14T09:57:07.434Z,97162.72
2022-10-14T10:00:02.325Z,97156.56
2022-10-14T10:02:43.674Z,97158.44
2022-10-14T10:05:25.770Z,97151.94
2022-10-14T10:08:15.646Z,97146.06
2022-10-14T10:11:00.483Z,97128.59
2022-10-14T10:13:35.569Z,97140.88
2022-10-14T10:16:04.617Z,97147.63
2022-10-14T10:18:32.217Z,97136.78
2022-10-14T10:21:15.839Z,97154.06
2022-10-14T10:23:53.689Z,97156.81
2022-10-14T10:26:27.219Z,97156.09
2022-10-14T10:28:57.519Z,97157.16
2022-10-14T10:31:35.315Z,97146.97
2022-10-14T10:34:39.030Z,97153.47
2022-10-14T10:37:27.184Z,97150.97
2022-10-14T10:40:00.928Z,97146.03
2022-10-14T10:42:35.944Z,97149.81
2022-10-14T10:45:06.392Z,97152.44
2022-10-14T10:47:45.912Z,97141.94
2022-10-14T10:50:17.516Z,97147.88
2022-10-14T10:52:49.558Z,97148.09
2022-10-14T10:55:20.120Z,97143.22
2022-10-14T10:57:50.605Z,97144.66
2022-10-14T11:00:21.265Z,97123.94
2022-10-14T11:03:06.662Z,97127.66
2022-10-14T11:05:39.285Z,97128.78
2022-10-14T11:09:10.017Z,97128.53
2022-10-14T11:12:15.682Z,97141.28
2022-10-14T11:15:12.733Z,97140.47
2022-10-14T11:18:29.202Z,97144.97
2022-10-14T11:21:00.893Z,97133.31
2022-10-14T11:23:49.118Z,97133.63
2022-10-14T11:26:49.228Z,97144.47
2022-10-14T11:29:18.786Z,97134.38
2022-10-14T11:32:23.982Z,97137.63
2022-10-14T11:35:09.969Z,97134.63
2022-10-14T11:37:49.901Z,97131.88
2022-10-14T11:40:23.413Z,97128.38
2022-10-14T11:43:09.954Z,97134.72
2022-10-14T11:46:06.995Z,97130.34
2022-10-14T11:48:56.224Z,97117.91
2022-10-14T11:51:35.674Z,97125.72
2022-10-14T11:54:07.669Z,97120.88
2022-10-14T11:56:57.690Z,97128.84
2022-10-14T11:59:40.262Z,97119.41
2022-10-14T12:02:26.641Z,97123.19
2022-10-14T12:05:28.565Z,97122.50
2022-10-14T12:08:22.176Z,97118.34
2022-10-14T12:10:58.129Z,97117.63
2022-10-14T12:13:37.059Z,97103.06
2022-10-14T12:16:05.630Z,97107.72
2022-10-14T12:18:33.575Z,97101.19
2022-10-14T12:21:39.720Z,97110.16
2022-10-14T12:24:30.742Z,97106.94
2022-10-14T12:27:00.900Z,97083.72
2022-10-14T12:29:31.611Z,97092.72
2022-10-14T12:32:05.429Z,97088.88
2022-10-14T12:34:46.499Z,97102.91
2022-10-14T12:37:31.732Z,97098.19
2022-10-14T12:40:02.859Z,97097.34
2022-10-14T12:42:36.164Z,97090.63
2022-10-14T12:45:14.704Z,97096.09
2022-10-14T12:47:42.642Z,97100.34
2022-10-14T12:50:13.917Z,97100.50
2022-10-14T12:52:45.445Z,97093.88
2022-10-14T12:55:20.501Z,97101.63
2022-10-14T12:57:55.415Z,97087.47
2022-10-14T13:00:23.227Z,97092.19
2022-10-14T13:03:02.832Z,97082.28
2022-10-14T13:05:33.729Z,97079.72
2022-10-14T13:08:12.528Z,97083.28
2022-10-14T13:10:46.981Z,97093.22
2022-10-14T13:13:54.649Z,97083.88
2022-10-14T13:16:25.744Z,97086.22
2022-10-14T13:19:00.562Z,97092.19
2022-10-14T13:21:36.454Z,97085.69
2022-10-14T13:24:27.795Z,97080.31
2022-10-14T13:26:55.818Z,97085.25
2022-10-14T13:29:27.056Z,97086.53
2022-10-14T13:32:22.696Z,97089.81
2022-10-14T13:35:13.191Z,97078.13
2022-10-14T13:37:46.502Z,97072.22
2022-10-14T13:40:34.821Z,97075.31
2022-10-14T13:43:12.727Z,97070.28
2022-10-14T13:45:43.061Z,97059.69
2022-10-14T13:48:20.803Z,97058.78
2022-10-14T13:50:50.151Z,97054.00
2022-10-14T13:53:19.310Z,97062.16
2022-10-14T13:55:54.773Z,97061.28
2022-10-14T13:58:23.137Z,97077.09
2022-10-14T14:01:00.914Z,97079.25
2022-10-14T14:03:28.890Z,97079.53
2022-10-14T14:05:56.549Z,97081.38
2022-10-14T14:08:40.261Z,97084.13
2022-10-14T14:11:18.453Z,97079.34
2022-10-14T14:13:54.568Z,97081.19
2022-10-14T14:16:28.788Z,97081.94
2022-10-14T14:19:07.850Z,97080.56
2022-10-14T14:21:37.175Z,97077.13
2022-10-14T14:24:11.123Z,97078.13
2022-10-14T14:26:38.954Z,97073.97
2022-10-14T14:29:07.503Z,97081.41
2022-10-14T14:32:04.937Z,97081.13
2022-10-14T14:34:22.914Z,97081.75
2022-10-14T14:36:53.367Z,97072.25
2022-10-14T14:39:27.779Z,97075.72
2022-10-14T14:41:57.649Z,97083.66
2022-10-14T14:44:27.382Z,97077.78
2022-10-14T14:47:02.616Z,97076.97
2022-10-14T14:49:35.515Z,97075.28
2022-10-14T14:52:04.152Z,97080.50
2022-10-14T14:54:32.062Z,97073.03
2022-10-14T14:57:04.291Z,97076.28
2022-10-14T14:59:39.847Z,97076.16
2022-10-14T15:02:20.703Z,97079.25
2022-10-14T15:04:58.660Z,97076.94
2022-10-14T15:07:27.756Z,97085.25
2022-10-14T15:10:04.013Z,97081.94
2022-10-14T15:12:39.373Z,97082.38
2022-10-14T15:15:23.083Z,97082.50
2022-10-14T15:18:13.688Z,97086.72
2022-10-14T15:20:42.854Z,97081.84
2022-10-14T15:23:43.305Z,97085.75
2022-10-14T15:26:36.335Z,97083.56
2022-10-14T15:29:16.126Z,97082.38
2022-10-14T15:31:48.923Z,97095.63
2022-10-14T15:34:19.281Z,97090.31
2022-10-14T15:36:49.403Z,97095.44
2022-10-14T15:39:17.773Z,97095.22
2022-10-14T15:41:45.706Z,97090.00
2022-10-14T15:44:13.407Z,97090.06
2022-10-14T15:47:00.520Z,97101.09
2022-10-14T15:49:30.811Z,97082.88
2022-10-14T15:51:58.513Z,97095.06
2022-10-14T15:54:27.774Z,97091.47
2022-10-14T15:59:28.728Z,97096.72
2022-10-14T16:01:56.410Z,97095.09
2022-10-14T16:04:25.048Z,97095.09
2022-10-14T16:06:55.444Z,97099.56
2022-10-14T16:09:23.481Z,97091.88
2022-10-14T16:11:57.479Z,97093.94
2022-10-14T16:14:28.656Z,97096.38
2022-10-14T16:16:58.018Z,97103.72
2022-10-14T16:19:25.780Z,97107.00
2022-10-14T16:21:53.895Z,97108.66
2022-10-14T16:24:22.279Z,97122.03
2022-10-14T16:26:50.000Z,97119.81
2022-10-14T16:29:18.337Z,97119.81
2022-10-14T16:31:49.385Z,97125.47
2022-10-14T16:34:17.648Z,97124.25
2022-10-14T16:36:46.134Z,97130.53
2022-10-14T16:39:14.509Z,97135.63
2022-10-14T16:41:42.596Z,97132.41
2022-10-14T16:44:24.972Z,97125.38
2022-10-14T16:47:16.040Z,97130.63
2022-10-14T16:49:48.117Z,97134.53
2022-10-14T16:52:16.138Z,97128.22
2022-10-14T16:54:43.737Z,97134.34
2022-10-14T16:57:11.683Z,97136.16
2022-10-14T16:59:39.450Z,97135.78
2022-10-14T17:02:11.082Z,97137.38
2022-10-14T17:04:39.397Z,97138.22
2022-10-14T17:07:10.096Z,97131.31
2022-10-14T17:09:39.523Z,97132.72
2022-10-14T17:12:13.018Z,97135.06
2022-10-14T17:14:42.048Z,97134.22
2022-10-14T17:17:10.451Z,97143.13
2022-10-14T17:19:39.201Z,97131.78
2022-10-14T17:22:06.982Z,97141.06
2022-10-14T17:24:34.933Z,97146.72
2022-10-14T17:27:05.474Z,97149.81
2022-10-14T17:29:33.542Z,97157.09
2022-10-14T17:32:01.132Z,97156.66
2022-10-14T17:34:29.026Z,97163.13
2022-10-14T17:37:03.049Z,97160.88
